• Join FlightAware (Why Join?)
  • Login
  • US Flag 
12:34AM EST


 

Airport Tracker/Info


-or-


 

Live Flight TrackerFlight Track Log ✈ N208ML ✈ 26-Jun-2013 ✈ KWDR - KYIP

Flight Track Log - Related Links

Times and Time Zones

All times are in EDT time to prevent confusion due to time zone crossing. See the N208ML flight status page for this flight to view local times or setup timezone preferences in your user account.

Time Position Orientation Groundspeed Altitude Reporting Facility
EDT Latitude Longitude Course Direction KTS MPH feet Rate Location/Type
05:47PM 34.0500 -83.6833 360° North 122 140 2,500  Level Atlanta TRACON
05:48PM 34.0833 -83.6833 360° North 116 133 3,000 480 Climbing Atlanta TRACON
05:48PM 34.0964 -83.6900 337° Northwest 128 147 3,400 600 Climbing Atlanta Center
05:49PM 34.1361 -83.6975 351° North 147 169 4,100 600 Climbing Atlanta Center
05:50PM 34.1736 -83.6947 North 140 161 4,700 600 Climbing Atlanta Center
05:51PM 34.2153 -83.6972 357° North 145 167 5,400 780 Climbing Atlanta Center
05:52PM 34.2508 -83.7019 354° North 129 148 6,300 660 Climbing Atlanta Center
05:53PM 34.2800 -83.7119 344° North 117 135 6,800 540 Climbing Atlanta Center
05:54PM 34.3178 -83.7194 351° North 123 142 7,400 600 Climbing Atlanta Center
05:55PM 34.3533 -83.7242 354° North 123 142 8,000 600 Climbing Atlanta Center
05:56PM 34.3908 -83.7292 354° North 129 148 8,600 540 Climbing Atlanta Center
05:57PM 34.4242 -83.7292 360° North 123 142 9,100 420 Climbing Atlanta Center
05:58PM 34.4597 -83.7389 347° North 123 142 9,500 420 Climbing Atlanta Center
05:59PM 34.4953 -83.7439 353° North 123 142 10,000 240 Climbing Atlanta Center
06:00PM 34.5347 -83.7464 357° North 131 151 10,000  Level Atlanta Center
06:01PM 34.5786 -83.7461 360° North 147 169 10,000  Level Atlanta Center
06:02PM 34.6289 -83.7536 353° North 167 192 10,000  Level Atlanta Center
06:03PM 34.6683 -83.7583 354° North 167 192 10,000  Level Atlanta Center
06:04PM 34.7206 -83.7633 356° North 177 204 10,000  Level Atlanta Center
06:05PM 34.7686 -83.7708 353° North 183 211 10,000  Level Atlanta Center
06:06PM 34.8144 -83.7731 358° North 172 198 10,000  Level Atlanta Center
06:07PM 34.8647 -83.7806 353° North 172 198 10,000  Level Atlanta Center
06:08PM 34.9106 -83.7831 357° North 172 198 10,000 -60 Level Atlanta Center
06:09PM 34.9606 -83.7931 351° North 172 198 9,900 -60 Descending Atlanta Center
06:10PM 35.0067 -83.8003 353° North 172 198 9,900  Level Atlanta Center
06:11PM 35.0525 -83.8053 355° North 167 192 9,900  Level Atlanta Center
06:12PM 35.1006 -83.8078 358° North 167 192 9,900  Level Atlanta Center
06:13PM 35.1486 -83.8153 353° North 167 192 9,900  Level Atlanta Center
06:14PM 35.1964 -83.8203 355° North 167 192 9,900  Level Atlanta Center
06:15PM 35.2444 -83.8253 355° North 167 192 9,900  Level Atlanta Center
06:16PM 35.2925 -83.8300 355° North 167 192 9,900  Level Atlanta Center
06:17PM 35.3425 -83.8375 353° North 167 192 9,900  Level Atlanta Center
06:18PM 35.3906 -83.8400 358° North 167 192 9,900  Level Atlanta Center
06:19PM 35.4386 -83.8475 353° North 167 192 9,900  Level Atlanta Center
06:20PM 35.4886 -83.8525 355° North 172 198 9,900  Level Atlanta Center
06:22PM 35.5419 -83.8565 357° North  Level FlightAware Approximate
06:29PM 35.8812 -83.8819 357° North  Level FlightAware Approximate
06:29PM 35.9058 -83.8911 33° Northeast 178 205 10,000  Level Indianapolis Center
06:30PM 35.9249 -83.8632 33° Northeast  Level FlightAware Approximate
06:30PM 35.9500 -83.8642 26° Northeast 177 204 10,000  Level Indianapolis Center
06:31PM 35.9655 -83.8303 33° Northeast  Level FlightAware Approximate
06:31PM 35.9911 -83.8256 37° Northeast 184 212 10,000  Level Indianapolis Center
06:32PM 36.0061 -83.7973 33° Northeast  Level FlightAware Approximate
06:32PM 36.0328 -83.7911 34° Northeast 182 209 10,000  Level Indianapolis Center
06:33PM 36.0467 -83.7644 33° Northeast  Level FlightAware Approximate
06:33PM 36.0600 -83.7717 30° Northeast 182 209 10,000  Level Atlanta Center
06:34PM 36.0872 -83.7314 33° Northeast  Level FlightAware Approximate
06:34PM 36.1017 -83.7356 35° Northeast 182 209 10,000  Level Atlanta Center
06:35PM 36.1456 -83.6994 34° Northeast 182 209 10,000  Level Atlanta Center
06:36PM 36.1892 -83.6606 36° Northeast 182 209 10,000  Level Atlanta Center
06:37PM 36.2308 -83.6242 35° Northeast 182 209 10,000  Level Atlanta Center
06:37PM 36.2569 -83.6008 36° Northeast 188 216 10,000  Level Indianapolis Center
06:38PM 36.3008 -83.5633 35° Northeast 190 219 10,000  Level Indianapolis Center
06:39PM 36.3433 -83.5281 34° Northeast 186 214 10,000  Level Indianapolis Center
06:40PM 36.3850 -83.4919 35° Northeast 186 214 10,000  Level Indianapolis Center
06:41PM 36.4361 -83.4497 34° Northeast 188 216 10,000  Level Indianapolis Center
06:42PM 36.4789 -83.4131 35° Northeast 188 216 10,000  Level Indianapolis Center
06:43PM 36.5214 -83.3756 35° Northeast 187 215 10,000  Level Indianapolis Center
06:44PM 36.5644 -83.3392 34° Northeast 187 215 10,000  Level Indianapolis Center
06:46PM 36.6058 -83.3025 35° Northeast 184 212 10,000  Level Indianapolis Center
06:47PM 36.6494 -83.2658 34° Northeast 186 214 10,000  Level Indianapolis Center
06:48PM 36.6919 -83.2292 35° Northeast 187 215 10,000  Level Indianapolis Center
06:49PM 36.7411 -83.1878 34° Northeast 183 211 10,000  Level Indianapolis Center
06:50PM 36.7842 -83.1508 34° Northeast 187 215 10,000  Level Indianapolis Center
06:51PM 36.8264 -83.1144 35° Northeast 184 212 10,000  Level Indianapolis Center
06:52PM 36.8689 -83.0781 34° Northeast 183 211 10,000  Level Indianapolis Center
06:53PM 36.9117 -83.0417 34° Northeast 185 213 10,000  Level Indianapolis Center
06:54PM 36.9550 -83.0033 35° Northeast 187 215 10,000  Level Indianapolis Center
06:55PM 36.9989 -82.9667 34° Northeast 187 215 10,000  Level Indianapolis Center
06:56PM 37.0414 -82.9292 35° Northeast 183 211 10,000  Level Indianapolis Center
06:57PM 37.0842 -82.8919 35° Northeast 185 213 10,000  Level Indianapolis Center
06:58PM 37.1269 -82.8550 35° Northeast 187 215 10,000  Level Indianapolis Center
06:59PM 37.1756 -82.8128 35° Northeast 183 211 10,000  Level Indianapolis Center
07:00PM 37.2181 -82.7753 35° Northeast 185 213 10,000  Level Indianapolis Center
07:01PM 37.2611 -82.7372 35° Northeast 187 215 10,000  Level Indianapolis Center
07:02PM 37.3058 -82.6994 34° Northeast 192 221 10,000  Level Indianapolis Center
07:03PM 37.3489 -82.6617 35° Northeast 189 217 10,000  Level Indianapolis Center
07:04PM 37.3931 -82.6236 34° Northeast 190 219 10,000  Level Indianapolis Center
07:05PM 37.4367 -82.5847 35° Northeast 192 221 10,000  Level Indianapolis Center
07:06PM 37.4869 -82.5400 35° Northeast 189 217 10,000  Level Indianapolis Center
07:07PM 37.5303 -82.5019 35° Northeast 188 216 10,000  Level Indianapolis Center
07:08PM 37.5731 -82.4639 35° Northeast 187 215 10,000  Level Indianapolis Center
07:09PM 37.6156 -82.4258 35° Northeast 186 214 10,000  Level Indianapolis Center
07:10PM 37.6589 -82.3886 34° Northeast 187 215 10,000  Level Indianapolis Center
07:11PM 37.7000 -82.3525 35° Northeast 182 209 10,000  Level Indianapolis Center
07:12PM 37.7428 -82.3139 36° Northeast 185 213 10,000  Level Indianapolis Center
07:13PM 37.7928 -82.2706 34° Northeast 187 215 10,000  Level Indianapolis Center
07:14PM 37.8361 -82.2331 34° Northeast 188 216 10,000  Level Indianapolis Center
07:15PM 37.8789 -82.1942 36° Northeast 190 219 10,000  Level Indianapolis Center
07:16PM 37.9192 -82.1603 34° Northeast 192 221 10,000  Level Indianapolis Center
07:17PM 37.9619 -82.1200 37° Northeast 192 221 10,000  Level Indianapolis Center
07:18PM 38.0144 -82.0731 35° Northeast 192 221 10,000  Level Indianapolis Center
07:19PM 38.0592 -82.0336 35° Northeast 193 222 10,000  Level Indianapolis Center
07:20PM 38.1025 -81.9942 36° Northeast 192 221 10,000  Level Indianapolis Center
07:21PM 38.1469 -81.9542 35° Northeast 195 224 10,000  Level Indianapolis Center
07:22PM 38.1889 -81.9153 36° Northeast 189 217 10,000  Level Indianapolis Center
07:24PM 38.2336 -81.8756 35° Northeast 194 223 10,000  Level Indianapolis Center
07:25PM 38.2764 -81.8375 35° Northeast 190 219 10,000  Level Indianapolis Center
07:26PM 38.3197 -81.7981 36° Northeast 191 220 10,000  Level Indianapolis Center
07:27PM 38.3772 -81.7717 20° North 183 211 10,000  Level Indianapolis Center
07:28PM 38.4261 -81.7822 350° North 180 207 10,000  Level Indianapolis Center
07:29PM 38.4728 -81.8042 340° North 178 205 10,000  Level Indianapolis Center
07:30PM 38.5219 -81.8167 349° North 178 205 10,000  Level Indianapolis Center
07:31PM 38.5706 -81.8306 347° North 178 205 10,000  Level Indianapolis Center
07:32PM 38.6194 -81.8436 348° North 178 205 10,000  Level Indianapolis Center
07:33PM 38.6683 -81.8572 348° North 178 205 10,000  Level Indianapolis Center
07:34PM 38.7175 -81.8711 348° North 179 206 10,000  Level Indianapolis Center
07:35PM 38.7658 -81.8847 348° North 177 204 10,000  Level Indianapolis Center
07:36PM 38.8144 -81.8983 348° North 178 205 10,000  Level Indianapolis Center
07:37PM 38.8625 -81.9114 348° North 177 204 10,000  Level Indianapolis Center
07:38PM 38.9111 -81.9253 347° North 177 204 10,000  Level Indianapolis Center
07:39PM 38.9694 -81.9425 347° North 179 206 10,000  Level Indianapolis Center
07:40PM 39.0186 -81.9550 349° North 179 206 10,000  Level Indianapolis Center
07:41PM 39.0667 -81.9683 348° North 176 203 10,000  Level Indianapolis Center
07:42PM 39.1150 -81.9831 347° North 178 205 10,000  Level Indianapolis Center
07:43PM 39.1639 -81.9964 348° North 179 206 10,000  Level Indianapolis Center
07:44PM 39.2125 -82.0094 348° North 177 204 10,000  Level Indianapolis Center
07:45PM 39.2600 -82.0228 348° North 176 203 10,000  Level Indianapolis Center
07:46PM 39.3083 -82.0361 348° North 176 203 10,000  Level Indianapolis Center
07:47PM 39.3564 -82.0511 346° North 178 205 10,000  Level Indianapolis Center
07:48PM 39.4056 -82.0639 349° North 180 207 10,000  Level Indianapolis Center
07:49PM 39.4539 -82.0783 347° North 180 207 10,000  Level Indianapolis Center
07:50PM 39.5136 -82.0950 348° North 182 209 10,000  Level Indianapolis Center
07:51PM 39.5633 -82.1097 347° North 182 209 10,000  Level Indianapolis Center
07:52PM 39.6128 -82.1231 348° North 181 208 10,000 -60 Level Indianapolis Center
07:53PM 39.6608 -82.1378 347° North 183 211 9,900 -60 Descending Indianapolis Center
07:54PM 39.7142 -82.1542 347° North 183 211 9,900  Level Indianapolis Center
07:55PM 39.7619 -82.1658 349° North 186 214 9,900  Level Indianapolis Center
07:56PM 39.8156 -82.1581 North 190 219 9,900  Level Indianapolis Center
07:57PM 39.8661 -82.1386 16° North 189 217 9,900  Level Indianapolis Center
07:58PM 39.9200 -82.1247 11° North 193 222 9,900  Level Indianapolis Center
07:59PM 39.9767 -82.1078 13° North 192 221 9,900  Level Indianapolis Center
08:00PM 40.0339 -82.0919 12° North 190 219 9,900  Level Indianapolis Center
08:01PM 40.0806 -82.0803 11° North 186 214 9,900  Level Indianapolis Center
08:02PM 40.1347 -82.0625 14° North 185 213 9,900  Level Indianapolis Center
08:03PM 40.1808 -82.0494 12° North 186 214 9,900  Level Indianapolis Center
08:04PM 40.2297 -82.0328 15° North 180 207 9,900  Level Indianapolis Center
08:05PM 40.2792 -82.0131 17° North 188 216 9,900  Level Indianapolis Center
08:06PM 40.3342 -82.0022 North 183 211 9,900  Level Indianapolis Center
08:08PM 40.3917 -81.9947 North 185 213 9,900  Level Indianapolis Center
08:09PM 40.4408 -81.9900 North 176 203 9,900  Level Indianapolis Center
08:10PM 40.4917 -81.9850 North 180 207 9,900  Level Indianapolis Center
08:11PM 40.5408 -81.9992 348° North 178 205 9,900  Level Indianapolis Center
08:12PM 40.5908 -82.0108 350° North 179 206 9,900  Level Indianapolis Center
08:12PM 40.6272 -82.0139 356° North 179 206 9,900  Level Cleveland Center
08:13PM 40.6772 -82.0258 350° North 179 206 9,900  Level Cleveland Center
08:14PM 40.7272 -82.0242 North 179 206 9,900  Level Cleveland Center
08:15PM 40.7772 -82.0225 North 179 206 9,900  Level Cleveland Center
08:16PM 40.8064 -82.0178 North 185 213 9,900  Level Cleveland Center
08:17PM 40.8586 -82.0161 North 184 212 9,900  Level Cleveland Center
08:18PM 40.9147 -82.0311 349° North 180 207 9,900  Level Cleveland Center
08:20PM 41.0081 -82.0581 348° North 182 209 9,900  Level Cleveland Center
08:21PM 41.0478 -82.0700 347° North 180 207 9,900  Level Cleveland Center
08:21PM 41.0683 -82.0758 348° North 179 206 9,900  Level Cleveland Center
08:22PM 41.1078 -82.0906 344° North 180 207 9,900  Level Cleveland Center
08:23PM 41.1556 -82.1028 349° North 180 207 10,000  Climbing Cleveland Center
08:24PM 41.2033 -82.1203 345° North 178 205 10,000  Level Cleveland Center
08:25PM 41.2531 -82.1353 347° North 180 207 10,000  Level Cleveland Center
08:26PM 41.2989 -82.1475 349° North 179 206 10,000  Level Cleveland Center
08:28PM 41.3839 -82.1828 343° North 188 216 10,000  Level Cleveland Center
08:29PM 41.4272 -82.2142 331° Northwest 177 204 10,000  Level Cleveland Center
08:30PM 41.4728 -82.2347 341° North 177 204 10,000  Level Cleveland Center
08:31PM 41.5225 -82.2500 347° North 172 198 10,000  Level Cleveland Center
08:32PM 41.5575 -82.2925 318° Northwest 167 192 10,000  Level Cleveland Center
08:33PM 41.5922 -82.3350 318° Northwest 172 198 10,000  Level Cleveland Center
08:34PM 41.6331 -82.3833 319° Northwest 172 198 10,000 -60 Level Cleveland Center
08:35PM 41.6658 -82.4206 320° Northwest 172 198 9,900 -180 Descending Cleveland Center
08:36PM 41.7047 -82.4633 321° Northwest 172 198 9,700 -300 Descending Cleveland Center
08:36PM 41.7333 -82.4975 318° Northwest 184 212 9,500 -420 Descending Cleveland Center
08:37PM 41.7681 -82.5403 317° Northwest 191 220 9,100 -300 Descending Cleveland Center
08:39PM 41.8131 -82.5919 319° Northwest 178 205 9,000 -120 Descending Cleveland Center
08:40PM 41.8519 -82.6347 321° Northwest 176 203 8,900  Descending Cleveland Center
08:41PM 41.8886 -82.6778 319° Northwest 171 197 9,000 -300 Climbing Cleveland Center
08:42PM 41.9147 -82.7344 302° West 185 213 8,400 -600 Descending Cleveland Center
08:42PM 41.9408 -82.7939 301° West 194 223 7,900 -540 Descending Cleveland Center
08:43PM 41.9667 -82.8508 301° West 185 213 7,400 -600 Descending Cleveland Center
08:45PM 41.9947 -82.9106 302° West 174 200 6,800 -660 Descending Cleveland Center
08:46PM 42.0206 -82.9700 300° West 170 196 6,100 -660 Descending Cleveland Center
08:47PM 42.0467 -83.0214 304° West 175 201 5,400 -600 Descending Cleveland Center
08:48PM 42.0850 -83.0733 315° West 183 211 5,000 -180 Descending Cleveland Center
08:49PM 42.1156 -83.1136 316° Northwest 173 199 5,100  Climbing Cleveland Center
08:50PM 42.1497 -83.1625 313° West 168 193 5,100  Level Cleveland Center
08:51PM 42.1861 -83.2117 315° West 167 192 5,100 -60 Level Cleveland Center
08:52PM 42.2144 -83.2522 313° West 168 193 5,000  Descending Cleveland Center
08:53PM 42.2489 -83.2986 315° West 169 194 5,100  Climbing Cleveland Center
08:54PM 42.2747 -83.3503 304° West 169 194 5,100 -60 Level Cleveland Center
08:55PM 42.2922 -83.4069 293° West 172 198 5,000 -360 Descending Cleveland Center
08:56PM 42.3094 -83.4669 291° West 175 201 4,400 -660 Descending Cleveland Center
08:57PM 42.3344 -83.5467 293° West 180 207 3,600 -720 Descending Cleveland Center
08:58PM 42.3606 -83.5900 309° West 181 208 3,000 -360 Descending Cleveland Center
08:59PM 42.3822 -83.6361 302° West 137 158 3,000  Level Cleveland Center
09:00PM 42.3567 -83.6572 211° Southwest 133 153 3,000  Level Cleveland Center
09:01PM 42.3256 -83.6472 167° South 135 155 3,100 -420 Climbing Cleveland Center
09:02PM 42.2992 -83.6153 138° Southeast 138 159 2,300 -780 Descending Cleveland Center
09:03PM 42.2750 -83.5858 138° Southeast 121 139 1,700 -600 Descending Cleveland Center